Time;durP1;ratioP1;P1;durP2;ratioP2;P2;SDS_P1;SDS_P2;PMS_P1;PMS_P2;Temp;Humidity;BMP_temperature;BMP_pressure;BME280_temperature;BME280_humidity;BME280_pressure;Samples;Min_cycle;Max_cycle;Signal;HPM_P1;HPM_P2
2023/06/29 00:00:59;;;;;;;;;;;;;;;16.69;68.30;96587.97;5105482;28;19983;-85
2023/06/29 00:03:25;;;;;;;;;;;;;;;16.66;68.69;96581.34;5087494;28;20021;-73
2023/06/29 00:05:55;;;;;;;;;;;;;;;16.62;69.22;96581.03;5104389;28;19947;-73
2023/06/29 00:08:24;;;;;;;;;;;;;;;16.59;69.90;96584.19;5105478;28;19938;-73
2023/06/29 00:10:53;;;;;;;;;;;;;;;16.56;69.15;96576.75;5104265;28;19947;-73
2023/06/29 00:13:19;;;;;;;;;;;;;;;16.54;69.04;96580.69;5104951;28;19949;-73
2023/06/29 00:15:46;;;;;;;;;;;;;;;16.54;69.12;96576.19;5104809;28;19948;-73
2023/06/29 00:18:13;;;;;;;;;;;;;;;16.53;69.43;96576.47;5104815;28;19942;-85
2023/06/29 00:20:39;;;;;;;;;;;;;;;16.51;69.39;96570.63;5087300;28;19949;-73
2023/06/29 00:23:05;;;;;;;;;;;;;;;16.49;69.96;96576.16;5106015;28;19930;-73
2023/06/29 00:25:32;;;;;;;;;;;;;;;16.47;69.49;96569.53;5104788;28;19937;-73
2023/06/29 00:27:58;;;;;;;;;;;;;;;16.44;69.92;96569.00;5105155;28;19941;-73
2023/06/29 00:30:24;;;;;;;;;;;;;;;16.43;69.85;96566.59;5105588;28;19944;-73
2023/06/29 00:32:49;;;;;;;;;;;;;;;16.40;69.83;96554.66;5104953;28;19955;-74
2023/06/29 00:35:15;;;;;;;;;;;;;;;16.41;69.92;96553.59;5104447;28;19942;-71
2023/06/29 00:37:42;;;;;;;;;;;;;;;16.39;70.04;96554.91;5104968;28;19934;-86
2023/06/29 00:40:09;;;;;;;;;;;;;;;16.39;69.70;96555.69;5087742;28;20110;-71
2023/06/29 00:42:35;;;;;;;;;;;;;;;16.38;70.06;96556.75;5104813;28;19940;-71
2023/06/29 00:45:02;;;;;;;;;;;;;;;16.36;70.09;96556.22;5105404;28;19945;-70
2023/06/29 00:47:29;;;;;;;;;;;;;;;16.33;70.37;96551.41;5104788;28;19943;-70
2023/06/29 00:49:55;;;;;;;;;;;;;;;16.32;70.46;96544.53;5103860;28;19951;-71
2023/06/29 00:52:22;;;;;;;;;;;;;;;16.29;71.03;96549.53;5104631;28;19959;-71
2023/06/29 00:54:48;;;;;;;;;;;;;;;16.25;70.68;96541.28;5104720;28;19949;-71
2023/06/29 00:57:14;;;;;;;;;;;;;;;16.23;71.88;96546.84;5104096;28;19975;-75
2023/06/29 00:59:40;;;;;;;;;;;;;;;16.19;71.22;96536.97;5104416;28;19940;-74
2023/06/29 01:02:08;;;;;;;;;;;;;;;16.17;71.26;96547.84;5105457;28;19989;-74
2023/06/29 01:04:35;;;;;;;;;;;;;;;16.15;71.61;96543.84;5104509;28;19941;-74
2023/06/29 01:07:07;;;;;;;;;;;;;;;16.15;71.92;96541.22;5104523;28;19937;-74
2023/06/29 01:09:34;;;;;;;;;;;;;;;16.15;71.89;96549.94;5104421;28;19935;-75
2023/06/29 01:12:01;;;;;;;;;;;;;;;16.11;72.14;96540.91;5104455;28;19937;-74
2023/06/29 01:14:28;;;;;;;;;;;;;;;16.11;72.20;96538.25;5105166;28;20172;-76
2023/06/29 01:16:56;;;;;;;;;;;;;;;16.08;71.86;96536.09;5103309;28;19962;-73
2023/06/29 01:19:24;;;;;;;;;;;;;;;16.05;72.79;96536.63;5103268;28;19930;-73
2023/06/29 01:22:13;;;;;;;;;;;;;;;16.03;72.16;96536.06;5104371;28;19938;-74
2023/06/29 01:24:40;;;;;;;;;;;;;;;15.99;71.93;96537.59;5058869;28;20122;-73
2023/06/29 01:27:09;;;;;;;;;;;;;;;15.98;72.34;96534.19;5104591;28;20098;-73
2023/06/29 01:29:35;;;;;;;;;;;;;;;15.96;72.68;96533.63;5104774;28;20096;-72
2023/06/29 01:32:03;;;;;;;;;;;;;;;15.95;72.57;96529.38;5086649;28;20146;-73
2023/06/29 01:34:31;;;;;;;;;;;;;;;15.93;72.84;96528.03;5086942;28;19960;-77
2023/06/29 01:37:02;;;;;;;;;;;;;;;15.92;72.67;96529.09;5103933;28;20097;-77
2023/06/29 01:39:29;;;;;;;;;;;;;;;15.89;73.00;96526.94;5104980;28;19938;-77
2023/06/29 01:41:56;;;;;;;;;;;;;;;15.87;73.03;96524.53;5103083;28;20229;-77
2023/06/29 01:44:21;;;;;;;;;;;;;;;15.86;72.71;96522.16;5104118;28;19933;-77
2023/06/29 01:46:48;;;;;;;;;;;;;;;15.84;73.28;96517.09;5104656;28;19946;-77
2023/06/29 01:49:14;;;;;;;;;;;;;;;15.81;72.83;96518.41;5104111;28;19938;-72
2023/06/29 01:51:40;;;;;;;;;;;;;;;15.78;73.13;96510.97;5103445;28;19941;-73
2023/06/29 01:54:06;;;;;;;;;;;;;;;15.75;74.02;96513.31;5103958;28;19956;-71
2023/06/29 01:56:31;;;;;;;;;;;;;;;15.73;74.60;96512.78;5102810;28;19970;-71
2023/06/29 01:59:01;;;;;;;;;;;;;;;15.70;73.95;96506.06;5103966;28;19938;-71
2023/06/29 02:01:27;;;;;;;;;;;;;;;15.69;74.41;96512.44;5103756;28;20004;-71
2023/06/29 02:03:53;;;;;;;;;;;;;;;15.69;74.20;96504.50;5085970;28;19956;-71
2023/06/29 02:06:19;;;;;;;;;;;;;;;15.68;73.64;96502.88;5085861;28;19938;-72
2023/06/29 02:08:45;;;;;;;;;;;;;;;15.67;74.25;96496.00;5102753;28;20006;-70
2023/06/29 02:11:11;;;;;;;;;;;;;;;15.65;74.43;96503.41;5104135;28;19936;-72
2023/06/29 02:13:37;;;;;;;;;;;;;;;15.63;74.55;96508.13;5104230;28;19953;-71
2023/06/29 02:16:03;;;;;;;;;;;;;;;15.62;73.91;96503.88;5103828;28;19934;-70
2023/06/29 02:18:28;;;;;;;;;;;;;;;15.59;74.68;96501.75;5104575;28;19935;-70
2023/06/29 02:20:54;;;;;;;;;;;;;;;15.56;75.70;96502.22;5104029;28;19941;-70
2023/06/29 02:23:20;;;;;;;;;;;;;;;15.53;75.02;96502.72;5103999;28;20034;-70
2023/06/29 02:25:46;;;;;;;;;;;;;;;15.50;75.41;96493.47;5104481;28;19940;-74
2023/06/29 02:28:12;;;;;;;;;;;;;;;15.48;75.96;96495.56;5103693;28;20128;-75
2023/06/29 02:30:38;;;;;;;;;;;;;;;15.46;75.53;96497.66;5103682;28;19948;-70
2023/06/29 02:33:03;;;;;;;;;;;;;;;15.43;76.05;96491.00;5086316;28;20012;-70
2023/06/29 02:35:29;;;;;;;;;;;;;;;15.39;76.67;96494.38;5103658;28;20240;-70
2023/06/29 02:37:55;;;;;;;;;;;;;;;15.36;76.63;96490.38;5105604;28;19941;-71
2023/06/29 02:40:21;;;;;;;;;;;;;;;15.33;75.56;96490.06;5107194;28;20216;-71
2023/06/29 02:42:47;;;;;;;;;;;;;;;15.29;77.11;96504.84;5107186;28;19942;-71
2023/06/29 02:45:12;;;;;;;;;;;;;;;15.26;77.50;96495.53;5107129;28;19933;-71
2023/06/29 02:47:38;;;;;;;;;;;;;;;15.21;77.38;96492.84;5107087;28;19959;-73
2023/06/29 02:50:04;;;;;;;;;;;;;;;15.19;77.95;96494.94;5105957;28;19941;-73
2023/06/29 02:52:30;;;;;;;;;;;;;;;15.14;77.86;96492.22;5106433;28;20218;-72
2023/06/29 02:54:56;;;;;;;;;;;;;;;15.09;78.12;96495.59;5105802;28;19980;-72
2023/06/29 02:57:22;;;;;;;;;;;;;;;15.05;78.78;96504.28;5105838;28;19946;-73
2023/06/29 02:59:48;;;;;;;;;;;;;;;15.00;77.74;96492.59;5106716;28;19964;-73
2023/06/29 03:02:13;;;;;;;;;;;;;;;14.99;78.17;96490.19;5106349;28;20223;-73
2023/06/29 03:04:39;;;;;;;;;;;;;;;14.95;78.25;96499.66;5106780;28;19943;-71
2023/06/29 03:07:05;;;;;;;;;;;;;;;14.91;78.77;96495.91;5106435;28;19937;-70
2023/06/29 03:09:31;;;;;;;;;;;;;;;14.86;79.33;96496.63;5106635;28;19948;-71
2023/06/29 03:11:57;;;;;;;;;;;;;;;14.84;79.44;96492.66;5106600;28;19947;-70
2023/06/29 03:14:23;;;;;;;;;;;;;;;14.80;79.58;96490.50;5106975;28;19965;-71
2023/06/29 03:16:49;;;;;;;;;;;;;;;14.79;79.16;96486.25;5106257;28;19942;-70
2023/06/29 03:19:15;;;;;;;;;;;;;;;14.76;79.07;96484.09;5106490;28;19929;-71
2023/06/29 03:21:41;;;;;;;;;;;;;;;14.75;79.57;96490.41;5107199;28;19940;-71
2023/06/29 03:24:06;;;;;;;;;;;;;;;14.76;79.43;96494.66;5088424;28;20002;-71
2023/06/29 03:26:32;;;;;;;;;;;;;;;14.76;80.23;96504.41;5106341;28;19984;-74
2023/06/29 03:28:58;;;;;;;;;;;;;;;14.73;80.86;96489.06;5106869;28;19940;-72
2023/06/29 03:31:24;;;;;;;;;;;;;;;14.69;80.09;96482.69;5105089;28;19963;-73
2023/06/29 03:33:50;;;;;;;;;;;;;;;14.68;80.06;96483.69;5105749;28;19964;-73
2023/06/29 03:36:15;;;;;;;;;;;;;;;14.68;79.60;96481.88;5105112;28;19967;-73
2023/06/29 03:38:41;;;;;;;;;;;;;;;14.68;78.99;96489.81;5105833;28;19955;-73
2023/06/29 03:41:07;;;;;;;;;;;;;;;14.67;79.80;96488.19;5104911;28;19939;-71
2023/06/29 03:43:33;;;;;;;;;;;;;;;14.66;80.38;96489.25;5105048;28;20219;-75
2023/06/29 03:45:59;;;;;;;;;;;;;;;14.64;81.77;96485.25;5105944;28;20037;-74
2023/06/29 03:48:27;;;;;;;;;;;;;;;14.60;80.95;96480.44;5106232;28;20214;-74
2023/06/29 03:50:54;;;;;;;;;;;;;;;14.62;81.42;96490.78;5105348;28;19937;-74
2023/06/29 03:53:20;;;;;;;;;;;;;;;14.61;81.47;96484.69;5105780;28;19960;-74
2023/06/29 03:55:46;;;;;;;;;;;;;;;14.62;80.27;96477.56;5106266;28;19934;-74
2023/06/29 03:58:12;;;;;;;;;;;;;;;14.63;79.86;96470.44;5106282;28;19976;-73
2023/06/29 04:00:37;;;;;;;;;;;;;;;14.64;80.74;96472.84;5087483;28;19972;-71
2023/06/29 04:03:04;;;;;;;;;;;;;;;14.64;81.87;96472.06;5105875;28;19942;-73
2023/06/29 04:05:30;;;;;;;;;;;;;;;14.64;81.69;96472.06;5104555;28;19939;-72
2023/06/29 04:07:55;;;;;;;;;;;;;;;14.65;81.34;96468.38;5106117;28;20251;-72
2023/06/29 04:10:21;;;;;;;;;;;;;;;14.66;81.08;96462.84;5105993;28;19943;-74
2023/06/29 04:12:47;;;;;;;;;;;;;;;14.68;80.74;96473.97;5104299;28;20032;-73
2023/06/29 04:15:13;;;;;;;;;;;;;;;14.71;80.49;96472.66;5104207;28;19950;-74
2023/06/29 04:17:39;;;;;;;;;;;;;;;14.75;81.53;96484.34;5104214;28;20137;-70
2023/06/29 04:20:05;;;;;;;;;;;;;;;14.78;82.14;96481.19;5105884;28;19944;-72
2023/06/29 04:22:31;;;;;;;;;;;;;;;14.78;82.21;96476.75;5105206;28;20227;-72
2023/06/29 04:24:56;;;;;;;;;;;;;;;14.81;82.65;96476.25;5105203;28;19935;-72
2023/06/29 04:27:22;;;;;;;;;;;;;;;14.85;82.17;96478.41;5105120;28;20167;-73
2023/06/29 04:29:48;;;;;;;;;;;;;;;14.88;81.93;96473.41;5105341;28;20021;-73
2023/06/29 04:32:14;;;;;;;;;;;;;;;14.95;81.49;96475.88;5105531;28;19959;-73
2023/06/29 04:34:40;;;;;;;;;;;;;;;15.02;82.21;96479.16;5105801;28;19960;-71
2023/06/29 04:37:06;;;;;;;;;;;;;;;15.08;82.17;96470.25;5105270;28;19946;-71
2023/06/29 04:39:32;;;;;;;;;;;;;;;15.15;81.44;96456.88;5086919;28;20220;-71
2023/06/29 04:42:02;;;;;;;;;;;;;;;15.21;80.60;96464.59;5104598;28;19942;-71
2023/06/29 04:44:31;;;;;;;;;;;;;;;15.27;80.98;96465.47;5087544;28;19942;-71
2023/06/29 04:46:59;;;;;;;;;;;;;;;15.33;80.40;96459.19;5104474;28;19950;-71
2023/06/29 04:49:27;;;;;;;;;;;;;;;15.39;79.57;96457.38;5104391;28;19938;-71
2023/06/29 04:51:55;;;;;;;;;;;;;;;15.47;79.62;96458.78;5104492;28;19944;-71
2023/06/29 04:54:21;;;;;;;;;;;;;;;15.55;79.46;96467.06;5103473;28;19964;-86
2023/06/29 04:56:47;;;;;;;;;;;;;;;15.63;80.56;96473.75;5104116;28;19936;-71
2023/06/29 04:59:13;;;;;;;;;;;;;;;15.63;79.36;96469.28;5086565;28;19935;-71
2023/06/29 05:01:39;;;;;;;;;;;;;;;15.63;79.00;96471.91;5102614;28;19968;-71
2023/06/29 05:04:05;;;;;;;;;;;;;;;15.65;79.06;96469.03;5086496;28;19960;-71
2023/06/29 05:06:31;;;;;;;;;;;;;;;15.67;78.53;96464.28;5103342;28;19946;-71
2023/06/29 05:08:56;;;;;;;;;;;;;;;15.71;79.61;96467.25;5104750;28;19980;-71
2023/06/29 05:11:22;;;;;;;;;;;;;;;15.78;79.53;96466.00;5103265;28;19941;-72
2023/06/29 05:13:48;;;;;;;;;;;;;;;15.88;79.39;96460.03;5086416;28;19967;-71
2023/06/29 05:16:14;;;;;;;;;;;;;;;15.98;79.40;96462.75;5105232;28;19982;-72
2023/06/29 05:18:40;;;;;;;;;;;;;;;16.06;78.72;96458.84;5103263;28;19941;-71
2023/06/29 05:21:07;;;;;;;;;;;;;;;16.18;78.40;96458.69;5105153;28;19936;-71
2023/06/29 05:23:33;;;;;;;;;;;;;;;16.31;77.72;96450.28;5086385;28;20125;-71
2023/06/29 05:25:59;;;;;;;;;;;;;;;16.51;77.46;96444.34;5104020;28;19947;-71
2023/06/29 05:28:25;;;;;;;;;;;;;;;16.76;77.63;96458.81;5103828;28;19943;-71
2023/06/29 05:30:50;;;;;;;;;;;;;;;17.01;75.55;96444.91;5104283;28;20229;-71
2023/06/29 05:33:16;;;;;;;;;;;;;;;17.21;75.03;96442.31;5104174;28;20279;-71
2023/06/29 05:35:43;;;;;;;;;;;;;;;17.39;74.01;96435.75;5104714;28;19951;-72
2023/06/29 05:38:09;;;;;;;;;;;;;;;17.53;72.96;96429.94;5103092;28;19939;-71
2023/06/29 05:40:35;;;;;;;;;;;;;;;17.66;72.62;96426.81;5103606;28;20232;-71
2023/06/29 05:43:01;;;;;;;;;;;;;;;17.87;72.14;96421.53;5103070;28;19936;-71
2023/06/29 05:45:27;;;;;;;;;;;;;;;18.00;70.55;96413.06;5104076;28;19939;-71
2023/06/29 05:47:54;;;;;;;;;;;;;;;18.07;70.80;96413.56;5103748;28;19940;-71
2023/06/29 05:50:20;;;;;;;;;;;;;;;18.21;70.94;96411.19;5104571;28;19939;-71
2023/06/29 05:52:46;;;;;;;;;;;;;;;18.36;69.90;96400.53;5104023;28;19943;-78
2023/06/29 05:55:12;;;;;;;;;;;;;;;18.51;69.33;96396.25;5102890;28;19962;-78
2023/06/29 05:57:38;;;;;;;;;;;;;;;18.57;69.68;96405.81;5104509;28;19940;-78
2023/06/29 06:00:12;;;;;;;;;;;;;;;18.67;69.88;96401.25;5102740;28;20010;-77
2023/06/29 06:02:39;;;;;;;;;;;;;;;18.84;69.40;96397.50;5103444;28;19948;-78
2023/06/29 06:05:07;;;;;;;;;;;;;;;19.02;69.39;96399.56;5102816;28;19950;-78
2023/06/29 06:07:34;;;;;;;;;;;;;;;19.27;68.16;96395.16;5102744;28;19944;-87
2023/06/29 06:09:59;;;;;;;;;;;;;;;19.47;68.06;96399.59;5102735;28;19940;-73
2023/06/29 06:12:25;;;;;;;;;;;;;;;19.63;66.43;96387.78;5105866;28;19943;-74
2023/06/29 06:14:51;;;;;;;;;;;;;;;19.71;65.48;96388.28;5107672;28;19974;-73
2023/06/29 06:17:17;;;;;;;;;;;;;;;19.79;64.88;96383.16;5106526;28;19948;-74
2023/06/29 06:19:43;;;;;;;;;;;;;;;19.92;66.12;96389.69;5107628;28;20215;-73
2023/06/29 06:22:09;;;;;;;;;;;;;;;20.04;64.64;96376.03;5106515;28;19948;-73
2023/06/29 06:24:35;;;;;;;;;;;;;;;20.12;64.25;96379.97;5108340;28;19937;-74
2023/06/29 06:27:01;;;;;;;;;;;;;;;20.23;63.64;96378.78;5107540;28;20127;-79
2023/06/29 06:29:27;;;;;;;;;;;;;;;20.36;64.03;96383.44;5107086;28;19939;-72
2023/06/29 06:31:53;;;;;;;;;;;;;;;20.57;63.50;96369.91;5089865;28;19979;-70
2023/06/29 06:34:19;;;;;;;;;;;;;;;20.76;63.10;96378.00;5106187;28;19961;-72
2023/06/29 06:36:46;;;;;;;;;;;;;;;20.84;63.19;96382.69;5090033;28;20013;-72
2023/06/29 06:39:12;;;;;;;;;;;;;;;20.76;62.23;96370.78;5106957;28;19948;-71
2023/06/29 06:41:37;;;;;;;;;;;;;;;20.62;61.61;96370.69;5106691;28;19938;-71
2023/06/29 06:44:03;;;;;;;;;;;;;;;20.56;64.03;96384.31;5089078;28;19940;-75
2023/06/29 06:46:29;;;;;;;;;;;;;;;20.68;63.89;96390.88;5106593;28;19980;-71
2023/06/29 06:48:55;;;;;;;;;;;;;;;20.67;62.72;96381.28;5089081;28;19942;-80
2023/06/29 06:51:21;;;;;;;;;;;;;;;20.62;62.58;96376.03;5106793;28;20105;-79
2023/06/29 06:53:47;;;;;;;;;;;;;;;20.55;62.90;96377.41;5106898;28;20275;-79
2023/06/29 06:56:13;;;;;;;;;;;;;;;20.48;62.95;96367.88;5107802;28;20269;-78
2023/06/29 06:58:39;;;;;;;;;;;;;;;20.61;63.73;96373.63;5106938;28;20148;-79
2023/06/29 07:01:04;;;;;;;;;;;;;;;20.87;63.13;96368.78;5106777;28;20035;-79
2023/06/29 07:03:30;;;;;;;;;;;;;;;21.07;61.24;96359.75;5106492;28;20223;-75
2023/06/29 07:05:57;;;;;;;;;;;;;;;21.30;60.84;96360.75;5106818;28;19964;-80
2023/06/29 07:08:23;;;;;;;;;;;;;;;21.59;58.02;96343.84;5106681;28;20129;-80
2023/06/29 07:10:51;;;;;;;;;;;;;;;21.67;60.20;96351.16;5107238;28;19937;-79
2023/06/29 07:13:18;;;;;;;;;;;;;;;21.76;59.51;96354.75;5106631;28;20217;-80
2023/06/29 07:15:45;;;;;;;;;;;;;;;21.73;59.18;96355.31;5106476;28;19950;-79
2023/06/29 07:18:11;;;;;;;;;;;;;;;21.71;58.99;96354.03;5106541;28;20132;-79
2023/06/29 07:20:37;;;;;;;;;;;;;;;21.62;58.25;96352.03;5107047;28;19942;-72
2023/06/29 07:23:03;;;;;;;;;;;;;;;21.62;58.42;96352.03;5105199;28;19938;-73
2023/06/29 07:25:29;;;;;;;;;;;;;;;21.74;59.09;96350.81;5105060;28;19939;-72
2023/06/29 07:27:55;;;;;;;;;;;;;;;21.94;56.62;96342.44;5088355;28;19985;-72
2023/06/29 07:30:20;;;;;;;;;;;;;;;22.22;56.64;96337.94;5105914;28;19985;-72
2023/06/29 07:32:46;;;;;;;;;;;;;;;22.37;54.86;96326.22;5105091;28;19956;-72
2023/06/29 07:35:12;;;;;;;;;;;;;;;22.36;55.91;96340.66;5104897;28;19961;-71
2023/06/29 07:37:38;;;;;;;;;;;;;;;22.37;54.64;96330.78;5105079;28;20002;-72
2023/06/29 07:40:05;;;;;;;;;;;;;;;22.35;54.38;96335.63;5106171;28;19952;-72
2023/06/29 07:42:31;;;;;;;;;;;;;;;22.34;53.86;96331.34;5106024;28;20127;-73
2023/06/29 07:44:57;;;;;;;;;;;;;;;22.36;54.10;96332.63;5106031;28;19940;-73
2023/06/29 07:47:23;;;;;;;;;;;;;;;22.42;53.90;96328.78;5105619;28;19950;-74
2023/06/29 07:49:48;;;;;;;;;;;;;;;22.56;52.04;96323.44;5104716;28;19962;-73
2023/06/29 07:52:14;;;;;;;;;;;;;;;22.66;52.18;96327.81;5104861;28;20004;-73
2023/06/29 07:54:41;;;;;;;;;;;;;;;22.67;53.23;96335.50;5105688;28;20019;-73
2023/06/29 07:57:07;;;;;;;;;;;;;;;22.64;53.11;96333.44;5105421;28;19938;-72
2023/06/29 07:59:33;;;;;;;;;;;;;;;22.66;54.11;96339.28;5105625;28;19940;-79
2023/06/29 08:01:59;;;;;;;;;;;;;;;22.74;53.31;96336.97;5088480;28;19947;-71
2023/06/29 08:04:25;;;;;;;;;;;;;;;22.86;51.02;96324.69;5106369;28;20266;-72
2023/06/29 08:06:51;;;;;;;;;;;;;;;23.04;50.80;96333.72;5104517;28;19938;-71
2023/06/29 08:09:17;;;;;;;;;;;;;;;23.08;51.48;96328.56;5088260;28;19949;-71
2023/06/29 08:11:42;;;;;;;;;;;;;;;23.06;51.59;96326.19;5105108;28;19945;-72
2023/06/29 08:14:08;;;;;;;;;;;;;;;22.98;51.47;96332.19;5104413;28;19986;-71
2023/06/29 08:16:34;;;;;;;;;;;;;;;22.97;50.13;96322.59;5105419;28;19937;-79
2023/06/29 08:19:00;;;;;;;;;;;;;;;22.99;51.18;96327.63;5105997;28;19953;-72
2023/06/29 08:21:26;;;;;;;;;;;;;;;22.95;50.45;96324.78;5087259;28;19984;-72
2023/06/29 08:23:52;;;;;;;;;;;;;;;22.98;50.87;96328.75;5087923;28;19944;-72
2023/06/29 08:26:18;;;;;;;;;;;;;;;22.97;50.02;96319.13;5104832;28;19941;-72
2023/06/29 08:28:44;;;;;;;;;;;;;;;22.97;49.32;96324.47;5104090;28;19941;-72
2023/06/29 08:31:09;;;;;;;;;;;;;;;23.03;49.46;96325.97;5104772;28;19950;-72
2023/06/29 08:33:35;;;;;;;;;;;;;;;23.28;51.35;96330.75;5105083;28;19940;-72
2023/06/29 08:36:01;;;;;;;;;;;;;;;23.65;49.08;96318.13;5104565;28;19961;-75
2023/06/29 08:38:27;;;;;;;;;;;;;;;23.86;47.58;96318.44;5103759;28;19948;-90
2023/06/29 08:40:56;;;;;;;;;;;;;;;24.06;47.42;96314.44;5087764;28;19975;-89
2023/06/29 08:43:22;;;;;;;;;;;;;;;24.28;46.50;96304.78;5087655;28;20121;-89
2023/06/29 08:45:48;;;;;;;;;;;;;;;24.46;45.08;96302.94;5087668;28;19948;-87
2023/06/29 08:48:14;;;;;;;;;;;;;;;24.58;45.30;96307.75;5104608;28;20258;-89
2023/06/29 08:50:42;;;;;;;;;;;;;;;24.73;45.54;96301.94;5103597;28;19938;-88
2023/06/29 08:53:09;;;;;;;;;;;;;;;24.97;47.33;96308.75;5087529;28;20242;-75
2023/06/29 08:55:35;;;;;;;;;;;;;;;25.10;45.56;96307.84;5105471;28;20060;-73
2023/06/29 08:58:01;;;;;;;;;;;;;;;25.17;44.16;96302.78;5104662;28;19942;-72
2023/06/29 09:00:28;;;;;;;;;;;;;;;25.24;45.93;96311.19;5086525;28;20260;-72
2023/06/29 09:02:53;;;;;;;;;;;;;;;25.31;44.91;96303.44;5104360;28;19946;-72
2023/06/29 09:05:22;;;;;;;;;;;;;;;25.46;44.14;96301.38;5103100;28;20201;-72
2023/06/29 09:07:50;;;;;;;;;;;;;;;25.60;43.79;96296.63;5103517;28;19950;-72
2023/06/29 09:10:15;;;;;;;;;;;;;;;25.74;45.32;96307.19;5104522;28;19936;-72
2023/06/29 09:12:41;;;;;;;;;;;;;;;25.90;42.54;96300.22;5103364;28;20014;-72
2023/06/29 09:15:10;;;;;;;;;;;;;;;26.03;39.59;96290.38;5086463;28;20155;-87
2023/06/29 09:17:36;;;;;;;;;;;;;;;26.20;41.81;96302.97;5086288;28;19941;-88
2023/06/29 09:20:13;;;;;;;;;;;;;;;26.26;40.45;96306.28;5086496;28;19940;-88
2023/06/29 09:22:39;;;;;;;;;;;;;;;26.21;40.62;96309.16;5104080;28;20107;-86
2023/06/29 09:25:06;;;;;;;;;;;;;;;26.26;40.32;96296.31;5086291;28;19939;-87
2023/06/29 09:27:33;;;;;;;;;;;;;;;26.41;39.11;96299.56;5103487;28;19942;-87
2023/06/29 09:30:00;;;;;;;;;;;;;;;26.47;36.76;96303.66;5087193;28;19965;-74
2023/06/29 09:32:28;;;;;;;;;;;;;;;26.55;37.08;96299.34;5104660;28;19959;-72
2023/06/29 09:34:54;;;;;;;;;;;;;;;26.62;39.23;96302.34;5087090;28;19958;-72
2023/06/29 09:37:20;;;;;;;;;;;;;;;26.56;41.24;96303.59;5103671;28;19940;-72
2023/06/29 09:40:09;;;;;;;;;;;;;;;26.50;38.78;96311.88;5086911;28;20224;-73
2023/06/29 09:42:39;;;;;;;;;;;;;;;26.61;39.30;96300.78;5086187;28;19947;-73
2023/06/29 09:45:11;;;;;;;;;;;;;;;26.73;37.49;96301.66;5103805;28;19966;-72
2023/06/29 09:47:43;;;;;;;;;;;;;;;26.78;39.50;96307.94;5106270;28;19971;-74
2023/06/29 09:50:16;;;;;;;;;;;;;;;26.86;40.56;96305.19;5107758;28;19936;-74
2023/06/29 09:52:46;;;;;;;;;;;;;;;27.03;40.17;96298.13;5107789;28;19951;-75
2023/06/29 09:55:12;;;;;;;;;;;;;;;27.13;38.97;96305.78;5108116;28;19951;-75
2023/06/29 09:57:42;;;;;;;;;;;;;;;27.24;40.39;96300.84;5108628;28;19942;-75
2023/06/29 10:00:12;;;;;;;;;;;;;;;27.38;39.41;96295.94;5107914;28;19977;-75
2023/06/29 10:02:41;;;;;;;;;;;;;;;27.48;39.02;96292.84;5108592;28;19947;-75
2023/06/29 10:05:08;;;;;;;;;;;;;;;27.39;38.36;96283.31;5106664;28;19945;-75
2023/06/29 10:07:35;;;;;;;;;;;;;;;27.37;38.80;96289.00;5108665;28;19934;-74
2023/06/29 10:10:01;;;;;;;;;;;;;;;27.36;38.51;96286.63;5107593;28;19941;-73
2023/06/29 10:12:27;;;;;;;;;;;;;;;27.27;39.43;96282.13;5089659;28;19981;-73
2023/06/29 10:14:55;;;;;;;;;;;;;;;27.21;38.75;96285.31;5108056;28;20240;-72
2023/06/29 10:17:35;;;;;;;;;;;;;;;27.17;38.79;96282.47;5090430;28;19948;-73
2023/06/29 10:20:03;;;;;;;;;;;;;;;27.06;39.35;96286.69;5090636;28;20133;-73
2023/06/29 10:22:30;;;;;;;;;;;;;;;26.96;39.11;96284.38;5089529;28;19945;-73
2023/06/29 10:24:57;;;;;;;;;;;;;;;27.00;38.67;96288.00;5108114;28;19941;-76
2023/06/29 10:27:25;;;;;;;;;;;;;;;27.12;39.29;96280.00;5107166;28;19940;-78
2023/06/29 10:29:50;;;;;;;;;;;;;;;27.50;39.04;96271.75;5090301;28;20111;-80
2023/06/29 10:32:35;;;;;;;;;;;;;;;27.66;38.79;96276.56;5106367;28;19952;-79
2023/06/29 10:35:01;;;;;;;;;;;;;;;27.91;37.48;96269.34;5107857;28;19956;-79
2023/06/29 10:37:47;;;;;;;;;;;;;;;27.99;36.84;96268.44;5107885;28;20103;-80
2023/06/29 10:40:21;;;;;;;;;;;;;;;27.89;35.48;96261.56;5106931;28;19939;-79
2023/06/29 10:42:49;;;;;;;;;;;;;;;27.92;36.59;96262.81;5107846;28;20119;-76
2023/06/29 10:45:18;;;;;;;;;;;;;;;27.92;36.73;96265.50;5089121;28;19945;-72
2023/06/29 10:47:45;;;;;;;;;;;;;;;28.12;36.23;96259.25;5105964;28;19945;-73
2023/06/29 10:50:11;;;;;;;;;;;;;;;28.24;34.50;96255.75;5105997;28;19938;-72
2023/06/29 10:52:37;;;;;;;;;;;;;;;28.38;36.72;96255.41;5106637;28;20284;-72
2023/06/29 10:55:20;;;;;;;;;;;;;;;28.47;36.86;96266.88;5105865;28;19963;-72
2023/06/29 10:57:46;;;;;;;;;;;;;;;28.49;34.78;96261.94;5089120;28;20113;-73
2023/06/29 11:00:12;;;;;;;;;;;;;;;28.45;35.35;96269.13;5088064;28;20054;-73
2023/06/29 11:02:39;;;;;;;;;;;;;;;28.25;34.56;96260.03;5106524;28;19950;-74
2023/06/29 11:05:05;;;;;;;;;;;;;;;28.24;35.83;96250.34;5106916;28;20219;-88
2023/06/29 11:07:32;;;;;;;;;;;;;;;28.37;36.81;96253.88;5088606;28;19955;-88
2023/06/29 11:10:01;;;;;;;;;;;;;;;28.45;37.13;96254.84;5106394;28;19951;-87
2023/06/29 11:12:28;;;;;;;;;;;;;;;28.55;34.78;96243.63;5088699;28;19944;-88
2023/06/29 11:14:54;;;;;;;;;;;;;;;28.59;34.89;96241.84;5088571;28;19952;-87
2023/06/29 11:17:20;;;;;;;;;;;;;;;28.64;35.08;96247.00;5105519;28;19946;-86
2023/06/29 11:19:48;;;;;;;;;;;;;;;28.74;34.64;96248.44;5106278;28;19938;-75
2023/06/29 11:22:14;;;;;;;;;;;;;;;28.86;34.39;96247.63;5106719;28;19940;-74
2023/06/29 11:24:42;;;;;;;;;;;;;;;28.99;34.89;96243.00;5088369;28;19976;-73
2023/06/29 11:27:08;;;;;;;;;;;;;;;29.17;34.38;96232.69;5105662;28;19953;-73
2023/06/29 11:29:34;;;;;;;;;;;;;;;29.37;35.55;96233.66;5088295;28;19977;-73
2023/06/29 11:32:01;;;;;;;;;;;;;;;29.50;33.54;96235.16;5089079;28;19953;-73
2023/06/29 11:34:26;;;;;;;;;;;;;;;29.67;34.69;96232.13;5105980;28;19937;-73
2023/06/29 11:36:55;;;;;;;;;;;;;;;29.81;34.47;96230.94;5105852;28;19962;-73
2023/06/29 11:39:21;;;;;;;;;;;;;;;29.88;33.32;96226.50;5106191;28;19942;-73
2023/06/29 11:41:46;;;;;;;;;;;;;;;29.89;33.36;96235.41;5088925;28;19939;-72
2023/06/29 11:44:12;;;;;;;;;;;;;;;30.01;32.75;96234.50;5105009;28;20008;-72
2023/06/29 11:46:39;;;;;;;;;;;;;;;30.03;33.33;96226.84;5105477;28;19931;-73
2023/06/29 11:49:05;;;;;;;;;;;;;;;29.83;32.71;96224.06;5088034;28;19940;-73
2023/06/29 11:51:33;;;;;;;;;;;;;;;29.65;32.45;96229.00;5105667;28;19941;-73
2023/06/29 11:53:59;;;;;;;;;;;;;;;29.48;33.73;96230.09;5087916;28;19945;-73
2023/06/29 11:56:25;;;;;;;;;;;;;;;29.35;33.63;96223.19;5106609;28;19955;-74
2023/06/29 11:58:52;;;;;;;;;;;;;;;29.18;33.41;96226.97;5105236;28;20203;-77
2023/06/29 12:01:18;;;;;;;;;;;;;;;28.87;34.29;96223.00;5105817;28;20123;-73
2023/06/29 12:03:43;;;;;;;;;;;;;;;28.72;34.78;96226.41;5104610;28;19967;-72
2023/06/29 12:06:09;;;;;;;;;;;;;;;28.56;34.63;96222.84;5088397;28;19943;-72
2023/06/29 12:08:37;;;;;;;;;;;;;;;28.38;35.03;96216.88;5088339;28;20004;-73
2023/06/29 12:11:03;;;;;;;;;;;;;;;28.27;35.32;96219.25;5087184;28;19946;-72
2023/06/29 12:13:29;;;;;;;;;;;;;;;28.21;35.23;96216.00;5088282;28;19936;-73
2023/06/29 12:16:02;;;;;;;;;;;;;;;28.12;34.74;96220.72;5105920;28;20231;-75
2023/06/29 12:18:28;;;;;;;;;;;;;;;28.00;34.78;96221.50;5104908;28;19956;-77
2023/06/29 12:21:00;;;;;;;;;;;;;;;27.89;35.29;96217.69;5105389;28;19941;-76
2023/06/29 12:23:26;;;;;;;;;;;;;;;27.87;35.96;96215.31;5105615;28;19938;-77
2023/06/29 12:25:52;;;;;;;;;;;;;;;27.96;35.94;96211.72;5105264;28;19940;-76
2023/06/29 12:28:18;;;;;;;;;;;;;;;27.99;36.26;96214.53;5104712;28;19939;-76
2023/06/29 12:30:44;;;;;;;;;;;;;;;28.10;36.19;96210.28;5105650;28;19942;-76
2023/06/29 12:33:11;;;;;;;;;;;;;;;28.19;35.56;96212.84;5105905;28;19969;-72
2023/06/29 12:35:37;;;;;;;;;;;;;;;28.24;36.07;96206.44;5104136;28;19973;-86
2023/06/29 12:38:03;;;;;;;;;;;;;;;28.18;35.92;96208.59;5087072;28;19962;-87
2023/06/29 12:40:29;;;;;;;;;;;;;;;28.19;35.80;96201.28;5103834;28;20239;-88
2023/06/29 12:42:55;;;;;;;;;;;;;;;28.25;36.15;96202.63;5105819;28;19947;-87
2023/06/29 12:45:22;;;;;;;;;;;;;;;28.33;36.97;96201.72;5103851;28;19937;-87